Airfield :
LOGIN :

Register | Disclaimer

   EN    FR    IT 

 










Legend :    VFR   Marginal VFR   IFR   Intensive IFR   Very Intensive IFR
Visi :
Ceiling :
>= 8 km
>= 3000ft
5 to 8 km
1000 to 3000 ft
1500m to 5 km
500 to 1000 ft
800 to 1500m
200 to 500 ft
< 800m
< 200 ft
Symbols :   Thunderstorms  Fog  Heavy snow  Heavy precipitations  Wind > 20 kt
SIGMETs :     Misc.  Thunderstorms  Icing  Turbulence  Mountain Waves  Volcanic Ashes







- Airport Elevation : 1363 ft


ETIC - Grafenwohr Army Air Field

CURRENT METAR :
  • 201422Z AUTO 00000KT 9999 FEW070 FEW095 16/15 A2956 RMK AO2 RAE03DZB03E22 SLP007 $

EXPIRED METARs :
  • 201356Z AUTO 00000KT 9999 -RA BKN040 BKN065 15/15 A2956 RMK AO2 RAE08DZB08E22RAB22E42DZB42E45RAB45 SLP007 P0001 T01540151 $
  • 201326Z AUTO 00000KT 9999 -RA FEW014 SCT019 SCT033 BKN046 OVC065 15/15 A2957 RMK AO2 RAE08DZB08E22RAB22 SLP011 $
  • 201311Z AUTO 00000KT 9999 -DZ SCT003 SCT016 BKN029 BKN046 OVC065 15/15 A2957 RMK AO2 RAE08DZB08 CIG 015V029 SLP011 $
  • 201256Z AUTO 04003KT 2800 +RA BR BKN003 BKN014 BKN024 OVC050 15/15 A2958 RMK AO2 VIS 2000V4000 CIG 003V050 BKN003 V SCT SLP014 P0014 T01500150 $
  • 201243Z AUTO 33004KT 6000 RA BR FEW004 FEW023 SCT033 OVC050 16/15 A2957 RMK AO2 SLP011 $
  • 201156Z AUTO 31004KT 9999 -RA FEW018 SCT025 BKN035 OVC060 16/15 A2957 RMK AO2 DZE02RAB02E32DZB32E44RAB44 SLP011 P0001 60001 70001 T01620151 10169 20157 56003 $

TAF TAF ETIC
Valid from the 20 at 14:00 until the 21 at 20:00 UTC


201408Z 2014/2120 35009KT 8000 -SHRA OVC030 620802 QNH2956INS
TEMPO 2014/2018 6000 -TSRA OVC010CB
BECMG 2018/2019 35009KT 8000 -SHRA OVC030 620802 QNH2956INS
BECMG 2022/2023 VRB06KT 8000 BR OVC015 620802 QNH2956INS
BECMG 2109/2110 28009KT 8000 -SHRA OVC020 QNH2962INS
BECMG 2112/2113 28012G20KT 8000 -SHRA OVC020 QNH2968INS TX17/2110Z TN11/2104Z
No reported NOTAMs for that airfield.
1 SIGMET reported for the München FIR (EDMM) :
 
Embedded thunderstorms and hail
EDMM SIGMET 15 VALID 201415/201700 EDZF
EDMM MUNCHEN FIR EMBD TSGR OBS N OF N4930 AND W OF E01145 TOP FL360 MOV SSW 15KT NC=



MET'MAP, your aeronautical weather chart ! - Copyright ORBIFLY December 2007 - Disclaimer

ORBIFLY MET'MAP TEAM :

Programming & Development : Alexandra Zaïnal
Concept & Development : Baudouin d'Aumeries
Co-Development & Prog : Marc-Olivier Méhu
Technical & hardware support : Manuel Goepfert

Contact : metmap@orbifly.com




SOURCES & CREDITS :

   NOAA